sensor_id;sensor_type;location;lat;lon;timestamp;temperature;humidity
52621;DHT22;38515;53.160;6.990;2023-09-19T00:01:40;14.50;99.90
52621;DHT22;38515;53.160;6.990;2023-09-19T00:04:09;14.70;99.90
52621;DHT22;38515;53.160;6.990;2023-09-19T00:06:36;14.40;99.90
52621;DHT22;38515;53.160;6.990;2023-09-19T00:09:03;14.60;99.90
52621;DHT22;38515;53.160;6.990;2023-09-19T00:11:29;14.60;99.90
52621;DHT22;38515;53.160;6.990;2023-09-19T00:13:56;14.20;99.90
52621;DHT22;38515;53.160;6.990;2023-09-19T00:16:25;14.20;99.90
52621;DHT22;38515;53.160;6.990;2023-09-19T00:18:52;14.20;99.90
52621;DHT22;38515;53.160;6.990;2023-09-19T00:21:18;14.10;99.90
52621;DHT22;38515;53.160;6.990;2023-09-19T00:23:45;14.40;99.90
52621;DHT22;38515;53.160;6.990;2023-09-19T00:26:10;14.00;99.90
52621;DHT22;38515;53.160;6.990;2023-09-19T00:28:36;14.10;99.90
52621;DHT22;38515;53.160;6.990;2023-09-19T00:31:02;14.20;99.90
52621;DHT22;38515;53.160;6.990;2023-09-19T00:33:29;13.90;99.90
52621;DHT22;38515;53.160;6.990;2023-09-19T00:35:56;13.80;99.90
52621;DHT22;38515;53.160;6.990;2023-09-19T00:38:23;13.90;99.90
52621;DHT22;38515;53.160;6.990;2023-09-19T00:40:53;14.10;99.90
52621;DHT22;38515;53.160;6.990;2023-09-19T00:43:20;13.70;99.90
52621;DHT22;38515;53.160;6.990;2023-09-19T00:45:50;13.70;99.90
52621;DHT22;38515;53.160;6.990;2023-09-19T00:48:17;13.80;99.90
52621;DHT22;38515;53.160;6.990;2023-09-19T00:50:44;13.60;99.90
52621;DHT22;38515;53.160;6.990;2023-09-19T00:53:14;13.80;99.90
52621;DHT22;38515;53.160;6.990;2023-09-19T00:55:41;13.50;99.90
52621;DHT22;38515;53.160;6.990;2023-09-19T00:58:08;13.50;99.90
52621;DHT22;38515;53.160;6.990;2023-09-19T01:00:36;13.60;99.90
52621;DHT22;38515;53.160;6.990;2023-09-19T01:03:02;13.50;99.90
52621;DHT22;38515;53.160;6.990;2023-09-19T01:05:28;13.50;99.90
52621;DHT22;38515;53.160;6.990;2023-09-19T01:07:55;13.50;99.90
52621;DHT22;38515;53.160;6.990;2023-09-19T01:10:21;13.60;99.90
52621;DHT22;38515;53.160;6.990;2023-09-19T01:20:42;13.20;99.90
52621;DHT22;38515;53.160;6.990;2023-09-19T01:31:25;13.30;99.90
52621;DHT22;38515;53.160;6.990;2023-09-19T01:34:03;13.10;99.90
52621;DHT22;38515;53.160;6.990;2023-09-19T01:36:34;13.10;99.90
52621;DHT22;38515;53.160;6.990;2023-09-19T01:39:09;12.90;99.90
52621;DHT22;38515;53.160;6.990;2023-09-19T01:42:05;13.10;99.90
52621;DHT22;38515;53.160;6.990;2023-09-19T01:44:55;13.00;99.90
52621;DHT22;38515;53.160;6.990;2023-09-19T01:47:37;12.80;99.90
52621;DHT22;38515;53.160;6.990;2023-09-19T01:52:54;12.70;99.90
52621;DHT22;38515;53.160;6.990;2023-09-19T01:55:21;12.80;99.90
52621;DHT22;38515;53.160;6.990;2023-09-19T02:00:41;12.70;99.90
52621;DHT22;38515;53.160;6.990;2023-09-19T02:03:09;12.80;99.90
52621;DHT22;38515;53.160;6.990;2023-09-19T02:05:35;12.70;99.90
52621;DHT22;38515;53.160;6.990;2023-09-19T02:08:01;12.60;99.90
52621;DHT22;38515;53.160;6.990;2023-09-19T02:10:27;12.60;99.90
52621;DHT22;38515;53.160;6.990;2023-09-19T02:12:53;12.80;99.90
52621;DHT22;38515;53.160;6.990;2023-09-19T02:15:19;12.80;99.90
52621;DHT22;38515;53.160;6.990;2023-09-19T02:17:45;12.50;99.90
52621;DHT22;38515;53.160;6.990;2023-09-19T02:20:12;12.70;99.90
52621;DHT22;38515;53.160;6.990;2023-09-19T02:22:40;12.60;99.90
52621;DHT22;38515;53.160;6.990;2023-09-19T02:25:08;12.50;99.90
52621;DHT22;38515;53.160;6.990;2023-09-19T02:27:34;12.50;99.90
52621;DHT22;38515;53.160;6.990;2023-09-19T02:30:00;12.40;99.90
52621;DHT22;38515;53.160;6.990;2023-09-19T02:32:30;12.60;99.90
52621;DHT22;38515;53.160;6.990;2023-09-19T02:35:02;12.50;99.90
52621;DHT22;38515;53.160;6.990;2023-09-19T02:37:31;12.40;99.90
52621;DHT22;38515;53.160;6.990;2023-09-19T02:39:56;12.40;99.90
52621;DHT22;38515;53.160;6.990;2023-09-19T02:42:22;12.50;99.90
52621;DHT22;38515;53.160;6.990;2023-09-19T02:44:48;12.30;99.90
52621;DHT22;38515;53.160;6.990;2023-09-19T02:47:14;12.30;99.90
52621;DHT22;38515;53.160;6.990;2023-09-19T02:49:42;12.40;99.90
52621;DHT22;38515;53.160;6.990;2023-09-19T02:52:08;12.40;99.90
52621;DHT22;38515;53.160;6.990;2023-09-19T02:54:34;12.30;99.90
52621;DHT22;38515;53.160;6.990;2023-09-19T02:57:00;12.30;99.90
52621;DHT22;38515;53.160;6.990;2023-09-19T02:59:25;12.20;99.90
52621;DHT22;38515;53.160;6.990;2023-09-19T03:01:51;12.40;99.90
52621;DHT22;38515;53.160;6.990;2023-09-19T03:04:19;12.30;99.90
52621;DHT22;38515;53.160;6.990;2023-09-19T03:06:46;12.10;99.90
52621;DHT22;38515;53.160;6.990;2023-09-19T03:09:12;12.20;99.90
52621;DHT22;38515;53.160;6.990;2023-09-19T03:11:39;12.10;99.90
52621;DHT22;38515;53.160;6.990;2023-09-19T03:14:05;12.10;99.90
52621;DHT22;38515;53.160;6.990;2023-09-19T03:16:32;12.10;99.90
52621;DHT22;38515;53.160;6.990;2023-09-19T03:18:59;12.30;99.90
52621;DHT22;38515;53.160;6.990;2023-09-19T03:21:25;12.20;99.90
52621;DHT22;38515;53.160;6.990;2023-09-19T03:23:51;12.10;99.90
52621;DHT22;38515;53.160;6.990;2023-09-19T03:26:17;12.10;99.90
52621;DHT22;38515;53.160;6.990;2023-09-19T03:28:43;12.30;99.90
52621;DHT22;38515;53.160;6.990;2023-09-19T03:31:10;12.40;99.90
52621;DHT22;38515;53.160;6.990;2023-09-19T03:33:36;12.30;99.90
52621;DHT22;38515;53.160;6.990;2023-09-19T03:36:03;12.30;99.90
52621;DHT22;38515;53.160;6.990;2023-09-19T03:38:33;12.40;99.90
52621;DHT22;38515;53.160;6.990;2023-09-19T03:41:02;12.20;99.90
52621;DHT22;38515;53.160;6.990;2023-09-19T03:43:28;12.40;99.90
52621;DHT22;38515;53.160;6.990;2023-09-19T03:45:54;12.20;99.90
52621;DHT22;38515;53.160;6.990;2023-09-19T03:48:20;12.40;99.90
52621;DHT22;38515;53.160;6.990;2023-09-19T03:50:47;12.40;99.90
52621;DHT22;38515;53.160;6.990;2023-09-19T03:53:13;12.20;99.90
52621;DHT22;38515;53.160;6.990;2023-09-19T03:55:39;12.30;99.90
52621;DHT22;38515;53.160;6.990;2023-09-19T03:58:05;12.10;99.90
52621;DHT22;38515;53.160;6.990;2023-09-19T04:00:31;12.40;99.90
52621;DHT22;38515;53.160;6.990;2023-09-19T04:02:57;12.00;99.90
52621;DHT22;38515;53.160;6.990;2023-09-19T04:05:23;12.30;99.90
52621;DHT22;38515;53.160;6.990;2023-09-19T04:07:50;12.00;99.90
52621;DHT22;38515;53.160;6.990;2023-09-19T04:10:16;12.40;99.90
52621;DHT22;38515;53.160;6.990;2023-09-19T04:13:00;12.20;99.90
52621;DHT22;38515;53.160;6.990;2023-09-19T04:15:26;12.30;99.90
52621;DHT22;38515;53.160;6.990;2023-09-19T04:17:52;12.00;99.90
52621;DHT22;38515;53.160;6.990;2023-09-19T04:20:18;12.10;99.90
52621;DHT22;38515;53.160;6.990;2023-09-19T04:22:51;12.40;99.90
52621;DHT22;38515;53.160;6.990;2023-09-19T04:25:17;12.30;99.90
52621;DHT22;38515;53.160;6.990;2023-09-19T04:27:44;12.30;99.90
52621;DHT22;38515;53.160;6.990;2023-09-19T04:30:10;12.20;99.90
52621;DHT22;38515;53.160;6.990;2023-09-19T04:32:38;12.50;99.90
52621;DHT22;38515;53.160;6.990;2023-09-19T04:35:09;12.50;99.90
52621;DHT22;38515;53.160;6.990;2023-09-19T04:37:40;12.50;99.90
52621;DHT22;38515;53.160;6.990;2023-09-19T04:40:08;12.50;99.90
52621;DHT22;38515;53.160;6.990;2023-09-19T04:42:39;12.20;99.90
52621;DHT22;38515;53.160;6.990;2023-09-19T04:45:06;12.20;99.90
52621;DHT22;38515;53.160;6.990;2023-09-19T04:47:32;12.30;99.90
52621;DHT22;38515;53.160;6.990;2023-09-19T04:49:58;12.30;99.90
52621;DHT22;38515;53.160;6.990;2023-09-19T04:52:24;12.40;99.90
52621;DHT22;38515;53.160;6.990;2023-09-19T04:54:50;12.70;99.90
52621;DHT22;38515;53.160;6.990;2023-09-19T04:57:16;12.40;99.90
52621;DHT22;38515;53.160;6.990;2023-09-19T04:59:42;12.40;99.90
52621;DHT22;38515;53.160;6.990;2023-09-19T05:02:08;12.60;99.90
52621;DHT22;38515;53.160;6.990;2023-09-19T05:04:34;12.30;99.90
52621;DHT22;38515;53.160;6.990;2023-09-19T05:07:00;12.50;99.90
52621;DHT22;38515;53.160;6.990;2023-09-19T05:09:29;12.60;99.90
52621;DHT22;38515;53.160;6.990;2023-09-19T05:11:55;12.60;99.90
52621;DHT22;38515;53.160;6.990;2023-09-19T05:14:22;12.50;99.90
52621;DHT22;38515;53.160;6.990;2023-09-19T05:16:50;12.50;99.90
52621;DHT22;38515;53.160;6.990;2023-09-19T05:19:15;13.00;99.90
52621;DHT22;38515;53.160;6.990;2023-09-19T05:21:42;12.70;99.90
52621;DHT22;38515;53.160;6.990;2023-09-19T05:24:08;12.90;99.90
52621;DHT22;38515;53.160;6.990;2023-09-19T05:26:34;13.10;99.90
52621;DHT22;38515;53.160;6.990;2023-09-19T05:29:00;13.10;99.90
52621;DHT22;38515;53.160;6.990;2023-09-19T05:31:27;13.20;99.90
52621;DHT22;38515;53.160;6.990;2023-09-19T05:33:53;13.20;99.90
52621;DHT22;38515;53.160;6.990;2023-09-19T05:36:20;13.20;99.90
52621;DHT22;38515;53.160;6.990;2023-09-19T05:38:46;12.90;99.90
52621;DHT22;38515;53.160;6.990;2023-09-19T05:41:15;12.90;99.90
52621;DHT22;38515;53.160;6.990;2023-09-19T05:43:41;13.00;99.90
52621;DHT22;38515;53.160;6.990;2023-09-19T05:46:08;13.00;99.90
52621;DHT22;38515;53.160;6.990;2023-09-19T05:48:33;13.30;99.90
52621;DHT22;38515;53.160;6.990;2023-09-19T05:51:00;13.00;99.90
52621;DHT22;38515;53.160;6.990;2023-09-19T05:53:26;13.20;99.90
52621;DHT22;38515;53.160;6.990;2023-09-19T05:55:52;13.10;99.90
52621;DHT22;38515;53.160;6.990;2023-09-19T05:58:18;13.10;99.90
52621;DHT22;38515;53.160;6.990;2023-09-19T06:00:46;13.10;99.90
52621;DHT22;38515;53.160;6.990;2023-09-19T06:03:13;13.10;99.90
52621;DHT22;38515;53.160;6.990;2023-09-19T06:05:40;13.10;99.90
52621;DHT22;38515;53.160;6.990;2023-09-19T06:08:06;13.30;99.90
52621;DHT22;38515;53.160;6.990;2023-09-19T06:10:36;13.40;99.90
52621;DHT22;38515;53.160;6.990;2023-09-19T06:13:03;13.20;99.90
52621;DHT22;38515;53.160;6.990;2023-09-19T06:15:35;13.30;99.90
52621;DHT22;38515;53.160;6.990;2023-09-19T06:18:01;13.50;99.90
52621;DHT22;38515;53.160;6.990;2023-09-19T06:20:30;13.10;99.90
52621;DHT22;38515;53.160;6.990;2023-09-19T06:22:57;13.20;99.90
52621;DHT22;38515;53.160;6.990;2023-09-19T06:25:23;13.40;99.90
52621;DHT22;38515;53.160;6.990;2023-09-19T06:27:50;13.40;99.90
52621;DHT22;38515;53.160;6.990;2023-09-19T06:30:18;13.50;99.90
52621;DHT22;38515;53.160;6.990;2023-09-19T06:32:44;13.60;99.90
52621;DHT22;38515;53.160;6.990;2023-09-19T06:35:14;13.30;99.90
52621;DHT22;38515;53.160;6.990;2023-09-19T06:37:41;13.50;99.90
52621;DHT22;38515;53.160;6.990;2023-09-19T06:40:12;13.60;99.90
52621;DHT22;38515;53.160;6.990;2023-09-19T06:43:06;13.70;99.90
52621;DHT22;38515;53.160;6.990;2023-09-19T06:45:32;13.80;99.90
52621;DHT22;38515;53.160;6.990;2023-09-19T06:47:58;13.60;99.90
52621;DHT22;38515;53.160;6.990;2023-09-19T06:50:25;13.80;99.90
52621;DHT22;38515;53.160;6.990;2023-09-19T06:52:56;13.80;99.90
52621;DHT22;38515;53.160;6.990;2023-09-19T06:55:23;13.70;99.90
52621;DHT22;38515;53.160;6.990;2023-09-19T06:57:54;13.80;99.90
52621;DHT22;38515;53.160;6.990;2023-09-19T07:00:20;14.00;99.90
52621;DHT22;38515;53.160;6.990;2023-09-19T07:03:01;13.90;99.90
52621;DHT22;38515;53.160;6.990;2023-09-19T07:05:32;14.10;99.90
52621;DHT22;38515;53.160;6.990;2023-09-19T07:08:01;14.20;99.90
52621;DHT22;38515;53.160;6.990;2023-09-19T07:10:28;14.40;99.90
52621;DHT22;38515;53.160;6.990;2023-09-19T07:13:02;14.40;99.90
52621;DHT22;38515;53.160;6.990;2023-09-19T07:15:29;14.50;99.90
52621;DHT22;38515;53.160;6.990;2023-09-19T07:17:56;14.50;99.90
52621;DHT22;38515;53.160;6.990;2023-09-19T07:20:23;14.60;99.90
52621;DHT22;38515;53.160;6.990;2023-09-19T07:22:52;14.80;99.90
52621;DHT22;38515;53.160;6.990;2023-09-19T07:25:21;15.00;99.90
52621;DHT22;38515;53.160;6.990;2023-09-19T07:27:47;15.10;99.90
52621;DHT22;38515;53.160;6.990;2023-09-19T07:30:13;15.20;99.90
52621;DHT22;38515;53.160;6.990;2023-09-19T07:32:40;15.20;99.90
52621;DHT22;38515;53.160;6.990;2023-09-19T07:35:06;15.20;99.90
52621;DHT22;38515;53.160;6.990;2023-09-19T07:37:32;15.20;99.90
52621;DHT22;38515;53.160;6.990;2023-09-19T07:40:05;15.20;99.90
52621;DHT22;38515;53.160;6.990;2023-09-19T07:42:35;15.20;99.90
52621;DHT22;38515;53.160;6.990;2023-09-19T07:45:04;15.10;99.90
52621;DHT22;38515;53.160;6.990;2023-09-19T07:47:30;15.20;99.90
52621;DHT22;38515;53.160;6.990;2023-09-19T07:49:58;15.10;99.90
52621;DHT22;38515;53.160;6.990;2023-09-19T07:52:25;15.10;99.90
52621;DHT22;38515;53.160;6.990;2023-09-19T07:54:53;15.10;99.90
52621;DHT22;38515;53.160;6.990;2023-09-19T07:57:19;15.10;99.90
52621;DHT22;38515;53.160;6.990;2023-09-19T07:59:45;15.20;99.90
52621;DHT22;38515;53.160;6.990;2023-09-19T08:02:12;15.30;99.90
52621;DHT22;38515;53.160;6.990;2023-09-19T08:04:44;15.50;99.90
52621;DHT22;38515;53.160;6.990;2023-09-19T08:07:12;15.40;99.90
52621;DHT22;38515;53.160;6.990;2023-09-19T08:09:39;15.50;99.90
52621;DHT22;38515;53.160;6.990;2023-09-19T08:12:06;15.50;99.90
52621;DHT22;38515;53.160;6.990;2023-09-19T08:14:38;15.50;99.90
52621;DHT22;38515;53.160;6.990;2023-09-19T08:17:07;15.50;99.90
52621;DHT22;38515;53.160;6.990;2023-09-19T08:19:34;15.40;99.90
52621;DHT22;38515;53.160;6.990;2023-09-19T08:22:00;15.40;99.90
52621;DHT22;38515;53.160;6.990;2023-09-19T08:24:32;15.50;99.90
52621;DHT22;38515;53.160;6.990;2023-09-19T08:27:00;15.60;99.90
52621;DHT22;38515;53.160;6.990;2023-09-19T08:29:26;15.80;99.90
52621;DHT22;38515;53.160;6.990;2023-09-19T08:31:58;16.00;99.90
52621;DHT22;38515;53.160;6.990;2023-09-19T08:34:25;16.10;99.90
52621;DHT22;38515;53.160;6.990;2023-09-19T08:36:54;16.30;99.90
52621;DHT22;38515;53.160;6.990;2023-09-19T08:39:24;16.40;99.90
52621;DHT22;38515;53.160;6.990;2023-09-19T08:42:01;16.50;99.90
52621;DHT22;38515;53.160;6.990;2023-09-19T08:44:27;16.60;99.90
52621;DHT22;38515;53.160;6.990;2023-09-19T08:47:21;16.60;99.90
52621;DHT22;38515;53.160;6.990;2023-09-19T08:50:03;16.60;99.90
52621;DHT22;38515;53.160;6.990;2023-09-19T08:52:32;16.60;99.90
52621;DHT22;38515;53.160;6.990;2023-09-19T08:55:02;16.60;99.90
52621;DHT22;38515;53.160;6.990;2023-09-19T08:57:36;16.70;99.90
52621;DHT22;38515;53.160;6.990;2023-09-19T09:00:08;16.80;99.90
52621;DHT22;38515;53.160;6.990;2023-09-19T09:02:41;16.80;99.90
52621;DHT22;38515;53.160;6.990;2023-09-19T09:05:12;16.70;99.90
52621;DHT22;38515;53.160;6.990;2023-09-19T09:07:40;16.70;99.90
52621;DHT22;38515;53.160;6.990;2023-09-19T09:10:07;16.60;99.90
52621;DHT22;38515;53.160;6.990;2023-09-19T09:12:34;16.60;99.90
52621;DHT22;38515;53.160;6.990;2023-09-19T09:15:02;16.60;99.90
52621;DHT22;38515;53.160;6.990;2023-09-19T09:17:30;16.60;99.90
52621;DHT22;38515;53.160;6.990;2023-09-19T09:19:56;16.60;99.90
52621;DHT22;38515;53.160;6.990;2023-09-19T09:22:22;16.70;99.90
52621;DHT22;38515;53.160;6.990;2023-09-19T09:24:57;16.80;99.90
52621;DHT22;38515;53.160;6.990;2023-09-19T09:27:30;16.80;99.90
52621;DHT22;38515;53.160;6.990;2023-09-19T09:29:58;17.00;99.90
52621;DHT22;38515;53.160;6.990;2023-09-19T09:32:28;17.00;99.90
52621;DHT22;38515;53.160;6.990;2023-09-19T09:34:55;17.10;99.90
52621;DHT22;38515;53.160;6.990;2023-09-19T09:37:22;17.00;99.90
52621;DHT22;38515;53.160;6.990;2023-09-19T09:42:37;17.20;99.90
52621;DHT22;38515;53.160;6.990;2023-09-19T09:45:14;17.20;99.90
52621;DHT22;38515;53.160;6.990;2023-09-19T09:47:47;17.30;99.90
52621;DHT22;38515;53.160;6.990;2023-09-19T09:50:32;17.30;99.90
52621;DHT22;38515;53.160;6.990;2023-09-19T09:53:04;17.40;99.90
52621;DHT22;38515;53.160;6.990;2023-09-19T09:58:28;17.70;99.90
52621;DHT22;38515;53.160;6.990;2023-09-19T10:00:59;18.00;99.90
52621;DHT22;38515;53.160;6.990;2023-09-19T10:03:35;18.10;99.90
52621;DHT22;38515;53.160;6.990;2023-09-19T10:06:06;18.20;99.90
52621;DHT22;38515;53.160;6.990;2023-09-19T10:08:37;18.10;99.90
52621;DHT22;38515;53.160;6.990;2023-09-19T10:11:15;18.00;99.90
52621;DHT22;38515;53.160;6.990;2023-09-19T10:13:43;17.90;99.90
52621;DHT22;38515;53.160;6.990;2023-09-19T10:16:12;17.90;99.90
52621;DHT22;38515;53.160;6.990;2023-09-19T10:18:41;17.80;99.90
52621;DHT22;38515;53.160;6.990;2023-09-19T10:21:09;17.80;99.90
52621;DHT22;38515;53.160;6.990;2023-09-19T10:23:36;17.70;99.90
52621;DHT22;38515;53.160;6.990;2023-09-19T10:26:04;17.70;99.90
52621;DHT22;38515;53.160;6.990;2023-09-19T10:28:30;17.70;99.90
52621;DHT22;38515;53.160;6.990;2023-09-19T10:30:57;17.70;99.90
52621;DHT22;38515;53.160;6.990;2023-09-19T10:33:26;17.80;99.90
52621;DHT22;38515;53.160;6.990;2023-09-19T10:35:52;17.90;99.90
52621;DHT22;38515;53.160;6.990;2023-09-19T10:38:26;17.90;99.90
52621;DHT22;38515;53.160;6.990;2023-09-19T10:40:59;18.00;99.90
52621;DHT22;38515;53.160;6.990;2023-09-19T10:43:31;18.10;99.90
52621;DHT22;38515;53.160;6.990;2023-09-19T10:46:02;18.10;99.90
52621;DHT22;38515;53.160;6.990;2023-09-19T10:48:31;18.00;99.90
52621;DHT22;38515;53.160;6.990;2023-09-19T10:53:26;18.10;99.90
52621;DHT22;38515;53.160;6.990;2023-09-19T10:55:59;18.20;99.90
52621;DHT22;38515;53.160;6.990;2023-09-19T10:58:30;18.10;99.90
52621;DHT22;38515;53.160;6.990;2023-09-19T11:01:00;18.10;99.90
52621;DHT22;38515;53.160;6.990;2023-09-19T11:03:32;18.10;99.90
52621;DHT22;38515;53.160;6.990;2023-09-19T11:06:08;18.20;99.90
52621;DHT22;38515;53.160;6.990;2023-09-19T11:08:59;18.30;99.90
52621;DHT22;38515;53.160;6.990;2023-09-19T11:11:45;18.30;99.90
52621;DHT22;38515;53.160;6.990;2023-09-19T11:30:36;18.20;99.90
52621;DHT22;38515;53.160;6.990;2023-09-19T11:33:25;18.30;99.90
52621;DHT22;38515;53.160;6.990;2023-09-19T11:43:52;18.30;99.90
52621;DHT22;38515;53.160;6.990;2023-09-19T11:46:20;18.30;99.90
52621;DHT22;38515;53.160;6.990;2023-09-19T11:48:50;18.40;99.90
52621;DHT22;38515;53.160;6.990;2023-09-19T11:51:18;18.60;99.90
52621;DHT22;38515;53.160;6.990;2023-09-19T11:54:03;18.60;99.90
52621;DHT22;38515;53.160;6.990;2023-09-19T11:56:29;18.60;99.90
52621;DHT22;38515;53.160;6.990;2023-09-19T11:58:57;18.60;99.90
52621;DHT22;38515;53.160;6.990;2023-09-19T12:01:32;18.50;99.90
52621;DHT22;38515;53.160;6.990;2023-09-19T12:04:01;18.40;99.90
52621;DHT22;38515;53.160;6.990;2023-09-19T12:06:30;18.40;99.90
52621;DHT22;38515;53.160;6.990;2023-09-19T12:08:58;18.30;99.90
52621;DHT22;38515;53.160;6.990;2023-09-19T12:11:30;18.40;99.90
52621;DHT22;38515;53.160;6.990;2023-09-19T12:14:00;18.30;99.90
52621;DHT22;38515;53.160;6.990;2023-09-19T12:16:26;18.30;99.90
52621;DHT22;38515;53.160;6.990;2023-09-19T12:18:56;18.30;99.90
52621;DHT22;38515;53.160;6.990;2023-09-19T12:21:30;18.40;99.90
52621;DHT22;38515;53.160;6.990;2023-09-19T12:24:12;18.40;99.90
52621;DHT22;38515;53.160;6.990;2023-09-19T12:26:46;18.30;99.90
52621;DHT22;38515;53.160;6.990;2023-09-19T12:29:21;18.30;99.90
52621;DHT22;38515;53.160;6.990;2023-09-19T12:31:56;18.30;99.90
52621;DHT22;38515;53.160;6.990;2023-09-19T12:34:27;18.30;99.90
52621;DHT22;38515;53.160;6.990;2023-09-19T12:37:13;18.30;99.90
52621;DHT22;38515;53.160;6.990;2023-09-19T12:39:53;18.30;99.90
52621;DHT22;38515;53.160;6.990;2023-09-19T12:42:26;18.20;99.90
52621;DHT22;38515;53.160;6.990;2023-09-19T12:44:58;18.10;99.90
52621;DHT22;38515;53.160;6.990;2023-09-19T12:47:27;18.00;99.90
52621;DHT22;38515;53.160;6.990;2023-09-19T12:50:13;17.90;99.90
52621;DHT22;38515;53.160;6.990;2023-09-19T12:52:55;17.80;99.90
52621;DHT22;38515;53.160;6.990;2023-09-19T12:55:30;17.70;99.90
52621;DHT22;38515;53.160;6.990;2023-09-19T12:58:14;17.70;99.90
52621;DHT22;38515;53.160;6.990;2023-09-19T13:00:45;17.70;99.90
52621;DHT22;38515;53.160;6.990;2023-09-19T13:05:58;18.10;99.90
52621;DHT22;38515;53.160;6.990;2023-09-19T13:08:31;18.10;99.90
52621;DHT22;38515;53.160;6.990;2023-09-19T13:11:12;18.20;99.90
52621;DHT22;38515;53.160;6.990;2023-09-19T13:13:49;18.20;99.90
52621;DHT22;38515;53.160;6.990;2023-09-19T13:16:20;18.20;99.90
52621;DHT22;38515;53.160;6.990;2023-09-19T13:18:50;18.20;99.90
52621;DHT22;38515;53.160;6.990;2023-09-19T13:21:33;18.10;99.90
52621;DHT22;38515;53.160;6.990;2023-09-19T13:24:22;18.00;99.90
52621;DHT22;38515;53.160;6.990;2023-09-19T13:26:56;17.90;99.90
52621;DHT22;38515;53.160;6.990;2023-09-19T13:29:22;17.80;99.90
52621;DHT22;38515;53.160;6.990;2023-09-19T13:31:50;17.70;99.90
52621;DHT22;38515;53.160;6.990;2023-09-19T13:34:16;17.70;99.90
52621;DHT22;38515;53.160;6.990;2023-09-19T13:36:43;17.60;99.90
52621;DHT22;38515;53.160;6.990;2023-09-19T13:39:09;17.60;99.90
52621;DHT22;38515;53.160;6.990;2023-09-19T13:41:36;17.50;99.90
52621;DHT22;38515;53.160;6.990;2023-09-19T13:44:05;17.50;99.90
52621;DHT22;38515;53.160;6.990;2023-09-19T13:46:31;17.50;99.90
52621;DHT22;38515;53.160;6.990;2023-09-19T13:48:59;17.50;99.90
52621;DHT22;38515;53.160;6.990;2023-09-19T13:51:29;17.50;99.90
52621;DHT22;38515;53.160;6.990;2023-09-19T13:53:55;17.50;99.90
52621;DHT22;38515;53.160;6.990;2023-09-19T13:56:21;17.50;99.90
52621;DHT22;38515;53.160;6.990;2023-09-19T13:58:47;17.40;99.90
52621;DHT22;38515;53.160;6.990;2023-09-19T14:01:13;17.40;99.90
52621;DHT22;38515;53.160;6.990;2023-09-19T14:03:40;17.40;99.90
52621;DHT22;38515;53.160;6.990;2023-09-19T14:06:06;17.40;99.90
52621;DHT22;38515;53.160;6.990;2023-09-19T14:08:32;17.30;99.90
52621;DHT22;38515;53.160;6.990;2023-09-19T14:11:06;17.30;99.90
52621;DHT22;38515;53.160;6.990;2023-09-19T14:13:32;17.20;99.90
52621;DHT22;38515;53.160;6.990;2023-09-19T14:16:06;17.20;99.90
52621;DHT22;38515;53.160;6.990;2023-09-19T14:18:32;17.20;99.90
52621;DHT22;38515;53.160;6.990;2023-09-19T14:21:03;17.20;99.90
52621;DHT22;38515;53.160;6.990;2023-09-19T14:23:33;17.30;99.90
52621;DHT22;38515;53.160;6.990;2023-09-19T14:26:01;17.30;99.90
52621;DHT22;38515;53.160;6.990;2023-09-19T14:28:27;17.40;99.90
52621;DHT22;38515;53.160;6.990;2023-09-19T14:30:52;17.40;99.90
52621;DHT22;38515;53.160;6.990;2023-09-19T14:33:18;17.50;99.90
52621;DHT22;38515;53.160;6.990;2023-09-19T14:35:44;17.60;99.90
52621;DHT22;38515;53.160;6.990;2023-09-19T14:38:10;17.70;99.90
52621;DHT22;38515;53.160;6.990;2023-09-19T14:40:36;17.70;99.90
52621;DHT22;38515;53.160;6.990;2023-09-19T14:43:03;17.70;99.90
52621;DHT22;38515;53.160;6.990;2023-09-19T14:45:29;17.70;99.90
52621;DHT22;38515;53.160;6.990;2023-09-19T14:47:57;17.70;99.90
52621;DHT22;38515;53.160;6.990;2023-09-19T14:50:22;17.70;99.90
52621;DHT22;38515;53.160;6.990;2023-09-19T14:52:49;17.70;99.90
52621;DHT22;38515;53.160;6.990;2023-09-19T14:55:17;17.80;99.90
52621;DHT22;38515;53.160;6.990;2023-09-19T14:57:49;17.80;99.90
52621;DHT22;38515;53.160;6.990;2023-09-19T15:00:17;17.70;99.90
52621;DHT22;38515;53.160;6.990;2023-09-19T15:02:46;17.70;99.90
52621;DHT22;38515;53.160;6.990;2023-09-19T15:05:14;17.80;99.90
52621;DHT22;38515;53.160;6.990;2023-09-19T15:07:49;17.80;99.90
52621;DHT22;38515;53.160;6.990;2023-09-19T15:10:16;17.70;99.90
52621;DHT22;38515;53.160;6.990;2023-09-19T15:12:43;17.70;99.90
52621;DHT22;38515;53.160;6.990;2023-09-19T15:15:09;17.80;99.90
52621;DHT22;38515;53.160;6.990;2023-09-19T15:17:38;17.80;99.90
52621;DHT22;38515;53.160;6.990;2023-09-19T15:20:05;17.70;99.90
52621;DHT22;38515;53.160;6.990;2023-09-19T15:22:34;17.70;99.90
52621;DHT22;38515;53.160;6.990;2023-09-19T15:25:01;17.70;99.90
52621;DHT22;38515;53.160;6.990;2023-09-19T15:27:28;17.70;99.90
52621;DHT22;38515;53.160;6.990;2023-09-19T15:29:57;17.70;99.90
52621;DHT22;38515;53.160;6.990;2023-09-19T15:32:24;17.70;99.90
52621;DHT22;38515;53.160;6.990;2023-09-19T15:34:50;17.70;99.90
52621;DHT22;38515;53.160;6.990;2023-09-19T15:37:16;17.70;99.90
52621;DHT22;38515;53.160;6.990;2023-09-19T15:39:42;17.70;99.90
52621;DHT22;38515;53.160;6.990;2023-09-19T15:42:10;17.60;99.90
52621;DHT22;38515;53.160;6.990;2023-09-19T15:44:36;17.60;99.90
52621;DHT22;38515;53.160;6.990;2023-09-19T15:47:03;17.50;99.90
52621;DHT22;38515;53.160;6.990;2023-09-19T15:49:29;17.40;99.90
52621;DHT22;38515;53.160;6.990;2023-09-19T15:51:55;17.30;99.90
52621;DHT22;38515;53.160;6.990;2023-09-19T15:54:21;17.30;99.90
52621;DHT22;38515;53.160;6.990;2023-09-19T15:56:47;17.20;99.90
52621;DHT22;38515;53.160;6.990;2023-09-19T15:59:14;17.20;99.90
52621;DHT22;38515;53.160;6.990;2023-09-19T16:01:44;17.20;99.90
52621;DHT22;38515;53.160;6.990;2023-09-19T16:04:10;17.20;99.90
52621;DHT22;38515;53.160;6.990;2023-09-19T16:06:37;17.10;99.90
52621;DHT22;38515;53.160;6.990;2023-09-19T16:09:04;17.20;99.90
52621;DHT22;38515;53.160;6.990;2023-09-19T16:11:32;17.20;99.90
52621;DHT22;38515;53.160;6.990;2023-09-19T16:13:58;17.20;99.90
52621;DHT22;38515;53.160;6.990;2023-09-19T16:16:25;17.20;99.90
52621;DHT22;38515;53.160;6.990;2023-09-19T16:18:57;17.20;99.90
52621;DHT22;38515;53.160;6.990;2023-09-19T16:21:24;17.30;99.90
52621;DHT22;38515;53.160;6.990;2023-09-19T16:23:52;17.30;99.90
52621;DHT22;38515;53.160;6.990;2023-09-19T16:26:21;17.30;99.90
52621;DHT22;38515;53.160;6.990;2023-09-19T16:28:50;17.30;99.90
52621;DHT22;38515;53.160;6.990;2023-09-19T16:31:16;17.30;99.90
52621;DHT22;38515;53.160;6.990;2023-09-19T16:33:45;17.30;99.90
52621;DHT22;38515;53.160;6.990;2023-09-19T16:36:18;17.40;99.90
52621;DHT22;38515;53.160;6.990;2023-09-19T16:38:46;17.40;99.90